sensor_id;sensor_type;location;lat;lon;timestamp;temperature;humidity
47604;DHT22;33326;51.116;6.900;2023-02-18T07:17:14;10.90;99.90
47604;DHT22;33326;51.116;6.900;2023-02-18T07:22:16;10.90;99.90
47604;DHT22;33326;51.116;6.900;2023-02-18T07:27:18;10.90;99.90
47604;DHT22;33326;51.116;6.900;2023-02-18T07:32:22;11.10;99.90
47604;DHT22;33326;51.116;6.900;2023-02-18T07:37:23;11.00;99.90
47604;DHT22;33326;51.116;6.900;2023-02-18T07:42:25;11.10;99.90
47604;DHT22;33326;51.116;6.900;2023-02-18T07:47:29;11.10;99.90
47604;DHT22;33326;51.116;6.900;2023-02-18T07:52:31;11.10;99.90
47604;DHT22;33326;51.116;6.900;2023-02-18T07:57:33;11.00;99.90
47604;DHT22;33326;51.116;6.900;2023-02-18T08:02:56;10.80;99.90
47604;DHT22;33326;51.116;6.900;2023-02-18T08:07:58;10.60;99.90
47604;DHT22;33326;51.116;6.900;2023-02-18T08:13:00;10.50;99.90
47604;DHT22;33326;51.116;6.900;2023-02-18T08:18:04;10.60;99.90
47604;DHT22;33326;51.116;6.900;2023-02-18T08:23:07;10.50;99.90
47604;DHT22;33326;51.116;6.900;2023-02-18T08:28:09;10.40;99.90
47604;DHT22;33326;51.116;6.900;2023-02-18T11:32:25;10.10;99.90
47604;DHT22;33326;51.116;6.900;2023-02-18T11:37:32;10.00;99.90
47604;DHT22;33326;51.116;6.900;2023-02-18T11:42:34;10.00;99.90
47604;DHT22;33326;51.116;6.900;2023-02-18T11:47:37;10.10;99.90
47604;DHT22;33326;51.116;6.900;2023-02-18T11:52:40;10.20;99.90
47604;DHT22;33326;51.116;6.900;2023-02-18T11:57:45;10.30;99.90
47604;DHT22;33326;51.116;6.900;2023-02-18T12:02:51;10.20;99.90
47604;DHT22;33326;51.116;6.900;2023-02-18T12:07:57;10.20;99.90
47604;DHT22;33326;51.116;6.900;2023-02-18T12:13:02;10.30;99.90
47604;DHT22;33326;51.116;6.900;2023-02-18T12:18:18;10.30;99.90
47604;DHT22;33326;51.116;6.900;2023-02-18T12:23:26;10.10;99.90
47604;DHT22;33326;51.116;6.900;2023-02-18T12:28:49;10.20;99.90
47604;DHT22;33326;51.116;6.900;2023-02-18T12:34:11;10.10;99.90
47604;DHT22;33326;51.116;6.900;2023-02-18T12:39:26;10.10;99.90
47604;DHT22;33326;51.116;6.900;2023-02-18T12:44:37;10.20;99.90
47604;DHT22;33326;51.116;6.900;2023-02-18T12:50:03;10.20;99.90
47604;DHT22;33326;51.116;6.900;2023-02-18T12:55:27;10.20;99.90
47604;DHT22;33326;51.116;6.900;2023-02-18T13:00:49;10.20;99.90
47604;DHT22;33326;51.116;6.900;2023-02-18T13:06:00;10.20;99.90
47604;DHT22;33326;51.116;6.900;2023-02-18T13:11:18;10.20;99.90
47604;DHT22;33326;51.116;6.900;2023-02-18T13:16:22;10.20;99.90
47604;DHT22;33326;51.116;6.900;2023-02-18T13:21:26;10.30;99.90
47604;DHT22;33326;51.116;6.900;2023-02-18T13:26:31;10.30;99.90
47604;DHT22;33326;51.116;6.900;2023-02-18T13:31:43;10.40;99.90
47604;DHT22;33326;51.116;6.900;2023-02-18T13:36:57;10.30;99.90
47604;DHT22;33326;51.116;6.900;2023-02-18T13:42:23;10.30;99.90
47604;DHT22;33326;51.116;6.900;2023-02-18T13:47:37;10.30;99.90
47604;DHT22;33326;51.116;6.900;2023-02-18T13:52:40;10.30;99.90
47604;DHT22;33326;51.116;6.900;2023-02-18T13:57:46;10.40;99.90
47604;DHT22;33326;51.116;6.900;2023-02-18T14:02:56;10.40;99.90
47604;DHT22;33326;51.116;6.900;2023-02-18T14:08:11;10.30;99.90
47604;DHT22;33326;51.116;6.900;2023-02-18T14:13:37;10.40;99.90
47604;DHT22;33326;51.116;6.900;2023-02-18T14:18:59;10.40;99.90
47604;DHT22;33326;51.116;6.900;2023-02-18T14:24:04;10.40;99.90
47604;DHT22;33326;51.116;6.900;2023-02-18T14:29:11;10.50;99.90
47604;DHT22;33326;51.116;6.900;2023-02-18T14:34:40;10.50;99.90
47604;DHT22;33326;51.116;6.900;2023-02-18T14:39:58;10.50;99.90
47604;DHT22;33326;51.116;6.900;2023-02-18T14:45:11;10.50;99.90
47604;DHT22;33326;51.116;6.900;2023-02-18T14:50:17;10.50;99.90
47604;DHT22;33326;51.116;6.900;2023-02-18T14:55:24;10.40;99.90
47604;DHT22;33326;51.116;6.900;2023-02-18T15:00:28;10.40;99.90
47604;DHT22;33326;51.116;6.900;2023-02-18T15:05:36;10.50;99.90
47604;DHT22;33326;51.116;6.900;2023-02-18T15:10:43;10.60;99.90
47604;DHT22;33326;51.116;6.900;2023-02-18T15:15:50;10.60;99.90
47604;DHT22;33326;51.116;6.900;2023-02-18T15:20:53;10.60;99.90
47604;DHT22;33326;51.116;6.900;2023-02-18T15:25:56;10.50;99.90
47604;DHT22;33326;51.116;6.900;2023-02-18T15:31:00;10.50;99.90
47604;DHT22;33326;51.116;6.900;2023-02-18T15:36:04;10.40;99.90
47604;DHT22;33326;51.116;6.900;2023-02-18T15:41:10;10.40;99.90
47604;DHT22;33326;51.116;6.900;2023-02-18T15:46:14;10.40;99.90
47604;DHT22;33326;51.116;6.900;2023-02-18T15:51:19;10.40;99.90
47604;DHT22;33326;51.116;6.900;2023-02-18T15:56:29;10.60;99.90
47604;DHT22;33326;51.116;6.900;2023-02-18T16:01:32;10.50;99.90
47604;DHT22;33326;51.116;6.900;2023-02-18T16:06:37;10.60;99.90
47604;DHT22;33326;51.116;6.900;2023-02-18T16:11:43;10.60;99.90
47604;DHT22;33326;51.116;6.900;2023-02-18T16:17:02;10.70;99.90
47604;DHT22;33326;51.116;6.900;2023-02-18T16:22:05;10.70;99.90
47604;DHT22;33326;51.116;6.900;2023-02-18T16:27:15;10.70;99.90
47604;DHT22;33326;51.116;6.900;2023-02-18T16:32:17;10.70;99.90
47604;DHT22;33326;51.116;6.900;2023-02-18T16:37:19;10.70;99.90
47604;DHT22;33326;51.116;6.900;2023-02-18T16:42:41;10.70;99.90
47604;DHT22;33326;51.116;6.900;2023-02-18T16:47:44;10.80;99.90
47604;DHT22;33326;51.116;6.900;2023-02-18T16:52:47;10.80;99.90
47604;DHT22;33326;51.116;6.900;2023-02-18T16:57:51;10.80;99.90
47604;DHT22;33326;51.116;6.900;2023-02-18T17:02:55;10.80;99.90
47604;DHT22;33326;51.116;6.900;2023-02-18T17:08:10;10.80;99.90
47604;DHT22;33326;51.116;6.900;2023-02-18T17:13:18;10.90;99.90
47604;DHT22;33326;51.116;6.900;2023-02-18T17:18:21;10.80;99.90
47604;DHT22;33326;51.116;6.900;2023-02-18T17:23:23;10.80;99.90
47604;DHT22;33326;51.116;6.900;2023-02-18T17:28:29;10.70;99.90
47604;DHT22;33326;51.116;6.900;2023-02-18T17:33:32;10.70;99.90
47604;DHT22;33326;51.116;6.900;2023-02-18T17:38:35;10.80;99.90
47604;DHT22;33326;51.116;6.900;2023-02-18T17:43:39;10.70;99.90
47604;DHT22;33326;51.116;6.900;2023-02-18T17:48:42;10.70;99.90
47604;DHT22;33326;51.116;6.900;2023-02-18T17:53:44;10.60;99.90
47604;DHT22;33326;51.116;6.900;2023-02-18T17:58:48;10.60;99.90
47604;DHT22;33326;51.116;6.900;2023-02-18T18:03:50;10.60;99.90
47604;DHT22;33326;51.116;6.900;2023-02-18T18:08:52;10.60;99.90
47604;DHT22;33326;51.116;6.900;2023-02-18T18:13:55;10.70;99.90
47604;DHT22;33326;51.116;6.900;2023-02-18T18:18:57;10.50;99.90
47604;DHT22;33326;51.116;6.900;2023-02-18T18:24:00;10.50;99.90
47604;DHT22;33326;51.116;6.900;2023-02-18T18:29:04;10.50;99.90
47604;DHT22;33326;51.116;6.900;2023-02-18T18:34:07;10.50;99.90
47604;DHT22;33326;51.116;6.900;2023-02-18T18:39:10;10.60;99.90
47604;DHT22;33326;51.116;6.900;2023-02-18T18:44:15;10.50;99.90
47604;DHT22;33326;51.116;6.900;2023-02-18T18:49:17;10.50;99.90
47604;DHT22;33326;51.116;6.900;2023-02-18T18:54:19;10.50;99.90
47604;DHT22;33326;51.116;6.900;2023-02-18T18:59:22;10.60;99.90
47604;DHT22;33326;51.116;6.900;2023-02-18T19:04:24;10.60;99.90
47604;DHT22;33326;51.116;6.900;2023-02-18T19:09:27;10.70;99.90
47604;DHT22;33326;51.116;6.900;2023-02-18T19:14:30;10.60;99.90
47604;DHT22;33326;51.116;6.900;2023-02-18T19:19:32;10.70;99.90
47604;DHT22;33326;51.116;6.900;2023-02-18T19:24:34;10.70;99.90
47604;DHT22;33326;51.116;6.900;2023-02-18T19:29:38;10.70;99.90
47604;DHT22;33326;51.116;6.900;2023-02-18T19:34:40;10.80;99.90
47604;DHT22;33326;51.116;6.900;2023-02-18T19:39:42;10.80;99.90
47604;DHT22;33326;51.116;6.900;2023-02-18T19:44:46;10.80;99.90
47604;DHT22;33326;51.116;6.900;2023-02-18T19:49:48;10.80;99.90
47604;DHT22;33326;51.116;6.900;2023-02-18T19:54:50;10.80;99.90
47604;DHT22;33326;51.116;6.900;2023-02-18T19:59:53;10.80;99.90
47604;DHT22;33326;51.116;6.900;2023-02-18T20:04:58;10.90;99.90
47604;DHT22;33326;51.116;6.900;2023-02-18T20:10:01;10.90;99.90
47604;DHT22;33326;51.116;6.900;2023-02-18T20:15:06;10.90;99.90
47604;DHT22;33326;51.116;6.900;2023-02-18T20:20:09;10.90;99.90
47604;DHT22;33326;51.116;6.900;2023-02-18T20:25:11;10.90;99.90
47604;DHT22;33326;51.116;6.900;2023-02-18T20:30:14;10.80;99.90
47604;DHT22;33326;51.116;6.900;2023-02-18T20:35:16;10.80;99.90
47604;DHT22;33326;51.116;6.900;2023-02-18T20:40:18;10.80;99.90
47604;DHT22;33326;51.116;6.900;2023-02-18T20:45:21;10.80;99.90
47604;DHT22;33326;51.116;6.900;2023-02-18T20:50:24;10.80;99.90
47604;DHT22;33326;51.116;6.900;2023-02-18T20:55:26;10.80;99.90
47604;DHT22;33326;51.116;6.900;2023-02-18T21:00:29;10.90;99.90
47604;DHT22;33326;51.116;6.900;2023-02-18T21:05:31;10.80;99.90
47604;DHT22;33326;51.116;6.900;2023-02-18T21:10:33;10.90;99.90
47604;DHT22;33326;51.116;6.900;2023-02-18T21:15:37;10.90;99.90
47604;DHT22;33326;51.116;6.900;2023-02-18T21:20:39;10.80;99.90
47604;DHT22;33326;51.116;6.900;2023-02-18T21:25:41;10.80;99.90
47604;DHT22;33326;51.116;6.900;2023-02-18T21:30:44;10.80;99.90
47604;DHT22;33326;51.116;6.900;2023-02-18T21:35:46;10.80;99.90
47604;DHT22;33326;51.116;6.900;2023-02-18T21:40:48;10.90;99.90
47604;DHT22;33326;51.116;6.900;2023-02-18T21:45:51;10.90;99.90
47604;DHT22;33326;51.116;6.900;2023-02-18T21:50:53;10.90;99.90
47604;DHT22;33326;51.116;6.900;2023-02-18T21:56:08;10.90;99.90
47604;DHT22;33326;51.116;6.900;2023-02-18T22:01:11;10.90;99.90
47604;DHT22;33326;51.116;6.900;2023-02-18T22:06:13;10.80;99.90
47604;DHT22;33326;51.116;6.900;2023-02-18T22:11:15;10.80;99.90
47604;DHT22;33326;51.116;6.900;2023-02-18T22:16:19;10.80;99.90
47604;DHT22;33326;51.116;6.900;2023-02-18T22:21:21;10.80;99.90
47604;DHT22;33326;51.116;6.900;2023-02-18T22:26:23;10.80;99.90
47604;DHT22;33326;51.116;6.900;2023-02-18T22:31:28;10.80;99.90
47604;DHT22;33326;51.116;6.900;2023-02-18T22:36:31;10.80;99.90
47604;DHT22;33326;51.116;6.900;2023-02-18T22:41:33;10.90;99.90
47604;DHT22;33326;51.116;6.900;2023-02-18T22:46:37;10.80;99.90
47604;DHT22;33326;51.116;6.900;2023-02-18T22:51:41;10.70;99.90
47604;DHT22;33326;51.116;6.900;2023-02-18T22:56:44;10.70;99.90
47604;DHT22;33326;51.116;6.900;2023-02-18T23:01:49;10.70;99.90
47604;DHT22;33326;51.116;6.900;2023-02-18T23:06:52;10.80;99.90
47604;DHT22;33326;51.116;6.900;2023-02-18T23:11:55;10.80;99.90
47604;DHT22;33326;51.116;6.900;2023-02-18T23:17:00;10.80;99.90
47604;DHT22;33326;51.116;6.900;2023-02-18T23:22:18;10.80;99.90
47604;DHT22;33326;51.116;6.900;2023-02-18T23:27:21;10.80;99.90
47604;DHT22;33326;51.116;6.900;2023-02-18T23:32:25;10.80;99.90
47604;DHT22;33326;51.116;6.900;2023-02-18T23:37:30;10.80;99.90
47604;DHT22;33326;51.116;6.900;2023-02-18T23:42:51;10.80;99.90
47604;DHT22;33326;51.116;6.900;2023-02-18T23:47:55;10.80;99.90
47604;DHT22;33326;51.116;6.900;2023-02-18T23:52:57;10.80;99.90
47604;DHT22;33326;51.116;6.900;2023-02-18T23:57:59;10.80;99.90
